sensor_id;sensor_type;location;lat;lon;timestamp;pressure;altitude;pressure_sealevel;temperature;humidity
49827;BME280;35715;51.570;6.036;2022-12-11T00:01:15;101088.28;;;1.77;91.56
49827;BME280;35715;51.570;6.036;2022-12-11T00:03:41;101082.28;;;1.77;91.58
49827;BME280;35715;51.570;6.036;2022-12-11T00:06:09;101082.59;;;1.80;91.09
49827;BME280;35715;51.570;6.036;2022-12-11T00:08:35;101088.47;;;1.79;91.38
49827;BME280;35715;51.570;6.036;2022-12-11T00:11:02;101084.81;;;1.77;91.41
49827;BME280;35715;51.570;6.036;2022-12-11T00:13:27;101083.38;;;1.79;91.49
49827;BME280;35715;51.570;6.036;2022-12-11T00:18:31;101090.50;;;1.74;91.34
49827;BME280;35715;51.570;6.036;2022-12-11T00:21:00;101084.28;;;1.64;91.69
49827;BME280;35715;51.570;6.036;2022-12-11T00:23:26;101074.59;;;1.68;92.29
49827;BME280;35715;51.570;6.036;2022-12-11T00:25:52;101073.44;;;1.73;92.25
49827;BME280;35715;51.570;6.036;2022-12-11T00:28:17;101070.25;;;1.67;92.22
49827;BME280;35715;51.570;6.036;2022-12-11T00:30:42;101068.50;;;1.75;92.36
49827;BME280;35715;51.570;6.036;2022-12-11T00:33:08;101074.25;;;1.81;92.28
49827;BME280;35715;51.570;6.036;2022-12-11T00:35:44;101079.66;;;1.84;92.34
49827;BME280;35715;51.570;6.036;2022-12-11T00:38:14;101082.69;;;1.89;92.22
49827;BME280;35715;51.570;6.036;2022-12-11T00:40:40;101080.75;;;1.86;91.87
49827;BME280;35715;51.570;6.036;2022-12-11T00:43:05;101086.22;;;1.82;91.95
49827;BME280;35715;51.570;6.036;2022-12-11T00:45:34;101085.31;;;1.82;92.08
49827;BME280;35715;51.570;6.036;2022-12-11T00:47:59;101078.75;;;1.84;91.93
49827;BME280;35715;51.570;6.036;2022-12-11T00:50:25;101072.94;;;1.85;92.10
49827;BME280;35715;51.570;6.036;2022-12-11T00:52:50;101081.78;;;1.88;92.01
49827;BME280;35715;51.570;6.036;2022-12-11T00:55:23;101076.72;;;1.88;91.94
49827;BME280;35715;51.570;6.036;2022-12-11T00:57:52;101071.63;;;1.88;91.86
49827;BME280;35715;51.570;6.036;2022-12-11T01:00:17;101064.06;;;1.81;92.20
49827;BME280;35715;51.570;6.036;2022-12-11T01:02:43;101064.22;;;1.83;92.44
49827;BME280;35715;51.570;6.036;2022-12-11T01:05:09;101069.63;;;1.86;92.39
49827;BME280;35715;51.570;6.036;2022-12-11T01:07:34;101064.97;;;1.82;92.43
49827;BME280;35715;51.570;6.036;2022-12-11T01:09:59;101061.94;;;1.77;92.46
49827;BME280;35715;51.570;6.036;2022-12-11T01:12:43;101061.19;;;1.78;92.59
49827;BME280;35715;51.570;6.036;2022-12-11T01:15:09;101061.84;;;1.84;92.59
49827;BME280;35715;51.570;6.036;2022-12-11T01:17:35;101060.03;;;1.83;92.60
49827;BME280;35715;51.570;6.036;2022-12-11T01:20:00;101059.31;;;1.84;92.40
49827;BME280;35715;51.570;6.036;2022-12-11T01:22:26;101059.31;;;1.84;92.62
49827;BME280;35715;51.570;6.036;2022-12-11T01:24:51;101060.22;;;1.85;92.54
49827;BME280;35715;51.570;6.036;2022-12-11T01:27:16;101066.22;;;1.85;92.74
49827;BME280;35715;51.570;6.036;2022-12-11T01:29:42;101069.06;;;1.88;92.58
49827;BME280;35715;51.570;6.036;2022-12-11T01:32:07;101066.84;;;1.91;92.45
49827;BME280;35715;51.570;6.036;2022-12-11T01:34:32;101068.66;;;1.92;92.46
49827;BME280;35715;51.570;6.036;2022-12-11T01:36:59;101072.66;;;1.90;92.54
49827;BME280;35715;51.570;6.036;2022-12-11T01:39:25;101068.03;;;1.86;92.39
49827;BME280;35715;51.570;6.036;2022-12-11T01:41:55;101066.03;;;1.84;92.71
49827;BME280;35715;51.570;6.036;2022-12-11T01:46:53;101064.97;;;1.82;92.99
49827;BME280;35715;51.570;6.036;2022-12-11T01:49:19;101060.78;;;1.82;92.61
49827;BME280;35715;51.570;6.036;2022-12-11T01:54:20;101059.16;;;1.83;92.60
49827;BME280;35715;51.570;6.036;2022-12-11T01:56:49;101056.28;;;1.80;92.57
49827;BME280;35715;51.570;6.036;2022-12-11T01:59:16;101063.03;;;1.79;92.82
49827;BME280;35715;51.570;6.036;2022-12-11T02:04:26;101057.69;;;1.85;93.00
49827;BME280;35715;51.570;6.036;2022-12-11T02:06:57;101053.66;;;1.87;92.99
49827;BME280;35715;51.570;6.036;2022-12-11T02:09:23;101057.31;;;1.82;92.60
49827;BME280;35715;51.570;6.036;2022-12-11T02:18:11;101052.59;;;1.85;93.21
49827;BME280;35715;51.570;6.036;2022-12-11T02:28:46;101047.66;;;1.86;92.86
49827;BME280;35715;51.570;6.036;2022-12-11T02:34:10;101035.09;;;1.88;93.08
49827;BME280;35715;51.570;6.036;2022-12-11T02:39:21;101036.97;;;1.82;93.03
49827;BME280;35715;51.570;6.036;2022-12-11T02:41:50;101037.50;;;1.86;93.20
49827;BME280;35715;51.570;6.036;2022-12-11T02:44:17;101035.69;;;1.85;92.67
49827;BME280;35715;51.570;6.036;2022-12-11T02:49:16;101042.03;;;1.98;92.97
49827;BME280;35715;51.570;6.036;2022-12-11T02:51:42;101046.41;;;1.99;92.98
49827;BME280;35715;51.570;6.036;2022-12-11T02:54:10;101039.66;;;1.99;92.40
49827;BME280;35715;51.570;6.036;2022-12-11T02:59:14;101028.84;;;1.93;92.48
49827;BME280;35715;51.570;6.036;2022-12-11T03:01:42;101024.50;;;1.92;92.36
49827;BME280;35715;51.570;6.036;2022-12-11T03:04:07;101027.19;;;1.93;92.59
49827;BME280;35715;51.570;6.036;2022-12-11T03:06:36;101024.81;;;1.95;92.31
49827;BME280;35715;51.570;6.036;2022-12-11T03:09:02;101020.03;;;1.98;92.67
49827;BME280;35715;51.570;6.036;2022-12-11T03:11:28;101013.31;;;1.99;92.64
49827;BME280;35715;51.570;6.036;2022-12-11T03:13:53;101011.84;;;2.01;92.77
49827;BME280;35715;51.570;6.036;2022-12-11T03:16:23;101015.41;;;2.03;92.54
49827;BME280;35715;51.570;6.036;2022-12-11T03:19:05;101013.81;;;2.03;92.57
49827;BME280;35715;51.570;6.036;2022-12-11T03:21:43;101005.88;;;2.09;92.79
49827;BME280;35715;51.570;6.036;2022-12-11T03:24:19;101007.69;;;2.10;92.35
49827;BME280;35715;51.570;6.036;2022-12-11T03:26:49;101007.84;;;2.11;92.56
49827;BME280;35715;51.570;6.036;2022-12-11T03:29:20;101006.97;;;2.11;92.37
49827;BME280;35715;51.570;6.036;2022-12-11T03:31:55;101011.91;;;2.09;92.46
49827;BME280;35715;51.570;6.036;2022-12-11T03:34:24;101010.56;;;2.13;92.55
49827;BME280;35715;51.570;6.036;2022-12-11T03:39:28;101005.94;;;2.18;92.51
49827;BME280;35715;51.570;6.036;2022-12-11T03:41:54;101001.28;;;2.13;92.13
49827;BME280;35715;51.570;6.036;2022-12-11T03:44:21;101005.78;;;2.16;92.26
49827;BME280;35715;51.570;6.036;2022-12-11T03:46:47;101002.66;;;2.19;92.29
49827;BME280;35715;51.570;6.036;2022-12-11T03:49:15;101011.63;;;2.15;91.98
49827;BME280;35715;51.570;6.036;2022-12-11T03:51:43;101003.22;;;2.16;92.29
49827;BME280;35715;51.570;6.036;2022-12-11T03:54:10;101006.22;;;2.12;92.13
49827;BME280;35715;51.570;6.036;2022-12-11T03:56:37;101008.31;;;2.16;92.32
49827;BME280;35715;51.570;6.036;2022-12-11T03:59:03;101005.47;;;2.13;91.97
49827;BME280;35715;51.570;6.036;2022-12-11T04:01:29;101006.22;;;2.12;92.22
49827;BME280;35715;51.570;6.036;2022-12-11T04:03:54;101005.22;;;2.19;92.06
49827;BME280;35715;51.570;6.036;2022-12-11T04:06:19;101006.22;;;2.12;91.77
49827;BME280;35715;51.570;6.036;2022-12-11T04:08:44;100999.47;;;2.12;91.75
49827;BME280;35715;51.570;6.036;2022-12-11T04:11:09;100995.28;;;2.13;91.72
49827;BME280;35715;51.570;6.036;2022-12-11T04:13:53;100994.88;;;2.17;91.99
49827;BME280;35715;51.570;6.036;2022-12-11T04:16:37;100996.84;;;2.20;91.85
49827;BME280;35715;51.570;6.036;2022-12-11T04:19:03;100999.09;;;2.25;91.65
49827;BME280;35715;51.570;6.036;2022-12-11T04:21:47;100991.91;;;2.21;91.73
49827;BME280;35715;51.570;6.036;2022-12-11T04:24:31;100995.81;;;2.26;91.79
49827;BME280;35715;51.570;6.036;2022-12-11T04:26:56;100990.88;;;2.28;91.61
49827;BME280;35715;51.570;6.036;2022-12-11T04:29:21;100990.72;;;2.26;91.45
49827;BME280;35715;51.570;6.036;2022-12-11T04:31:47;100991.75;;;2.28;91.51
49827;BME280;35715;51.570;6.036;2022-12-11T04:34:12;100987.13;;;2.24;91.34
49827;BME280;35715;51.570;6.036;2022-12-11T04:39:15;100990.47;;;2.32;91.44
49827;BME280;35715;51.570;6.036;2022-12-11T04:41:40;100989.53;;;2.31;91.22
49827;BME280;35715;51.570;6.036;2022-12-11T04:44:06;100983.41;;;2.29;91.01
49827;BME280;35715;51.570;6.036;2022-12-11T04:46:35;100980.53;;;2.26;90.97
49827;BME280;35715;51.570;6.036;2022-12-11T04:49:01;100982.94;;;2.25;90.95
49827;BME280;35715;51.570;6.036;2022-12-11T04:51:26;100985.16;;;2.22;90.69
49827;BME280;35715;51.570;6.036;2022-12-11T04:53:52;100991.44;;;2.25;91.06
49827;BME280;35715;51.570;6.036;2022-12-11T04:58:48;100984.44;;;2.23;91.00
49827;BME280;35715;51.570;6.036;2022-12-11T05:01:15;100984.09;;;2.20;90.75
49827;BME280;35715;51.570;6.036;2022-12-11T05:03:40;100982.03;;;2.24;91.00
49827;BME280;35715;51.570;6.036;2022-12-11T05:06:11;100984.59;;;2.24;90.97
49827;BME280;35715;51.570;6.036;2022-12-11T05:08:37;100980.22;;;2.23;90.87
49827;BME280;35715;51.570;6.036;2022-12-11T05:11:06;100972.75;;;2.25;90.87
49827;BME280;35715;51.570;6.036;2022-12-11T05:13:31;100985.94;;;2.29;90.78
49827;BME280;35715;51.570;6.036;2022-12-11T05:16:14;100977.13;;;2.35;90.75
49827;BME280;35715;51.570;6.036;2022-12-11T05:18:40;100987.28;;;2.35;90.60
49827;BME280;35715;51.570;6.036;2022-12-11T05:21:06;100980.28;;;2.32;90.56
49827;BME280;35715;51.570;6.036;2022-12-11T05:23:32;100993.72;;;2.31;90.29
49827;BME280;35715;51.570;6.036;2022-12-11T05:26:10;100989.22;;;2.28;90.42
49827;BME280;35715;51.570;6.036;2022-12-11T05:28:36;100981.59;;;2.28;90.59
49827;BME280;35715;51.570;6.036;2022-12-11T05:31:06;100981.16;;;2.33;90.80
49827;BME280;35715;51.570;6.036;2022-12-11T05:33:33;100972.38;;;2.38;90.73
49827;BME280;35715;51.570;6.036;2022-12-11T05:36:03;100968.13;;;2.29;90.24
49827;BME280;35715;51.570;6.036;2022-12-11T05:38:28;100960.78;;;2.33;90.61
49827;BME280;35715;51.570;6.036;2022-12-11T05:40:57;100968.28;;;2.31;90.62
49827;BME280;35715;51.570;6.036;2022-12-11T05:43:24;100960.94;;;2.34;90.87
49827;BME280;35715;51.570;6.036;2022-12-11T05:46:05;100961.41;;;2.39;91.11
49827;BME280;35715;51.570;6.036;2022-12-11T05:48:31;100952.31;;;2.41;90.80
49827;BME280;35715;51.570;6.036;2022-12-11T05:50:57;100960.09;;;2.42;90.54
49827;BME280;35715;51.570;6.036;2022-12-11T05:53:23;100950.50;;;2.40;90.22
49827;BME280;35715;51.570;6.036;2022-12-11T05:55:48;100953.03;;;2.40;89.98
49827;BME280;35715;51.570;6.036;2022-12-11T05:58:13;100957.56;;;2.42;90.20
49827;BME280;35715;51.570;6.036;2022-12-11T06:00:41;100952.47;;;2.42;89.86
49827;BME280;35715;51.570;6.036;2022-12-11T06:03:07;100952.00;;;2.46;89.96
49827;BME280;35715;51.570;6.036;2022-12-11T06:05:37;100960.56;;;2.47;89.59
49827;BME280;35715;51.570;6.036;2022-12-11T06:08:02;100957.72;;;2.44;89.42
49827;BME280;35715;51.570;6.036;2022-12-11T06:10:27;100966.97;;;2.43;89.48
49827;BME280;35715;51.570;6.036;2022-12-11T06:12:53;100963.38;;;2.41;89.22
49827;BME280;35715;51.570;6.036;2022-12-11T06:15:18;100962.66;;;2.42;89.21
49827;BME280;35715;51.570;6.036;2022-12-11T06:17:43;100970.59;;;2.45;89.35
49827;BME280;35715;51.570;6.036;2022-12-11T06:20:08;100968.00;;;2.37;89.33
49827;BME280;35715;51.570;6.036;2022-12-11T06:22:34;100961.09;;;2.36;89.26
49827;BME280;35715;51.570;6.036;2022-12-11T06:25:04;100964.53;;;2.36;89.24
49827;BME280;35715;51.570;6.036;2022-12-11T06:27:30;100970.41;;;2.35;89.45
49827;BME280;35715;51.570;6.036;2022-12-11T06:29:55;100967.09;;;2.36;89.43
49827;BME280;35715;51.570;6.036;2022-12-11T06:32:20;100971.88;;;2.33;89.42
49827;BME280;35715;51.570;6.036;2022-12-11T06:34:46;100974.72;;;2.36;89.69
49827;BME280;35715;51.570;6.036;2022-12-11T06:39:50;100970.97;;;2.33;88.96
49827;BME280;35715;51.570;6.036;2022-12-11T06:42:15;100969.31;;;2.33;89.00
49827;BME280;35715;51.570;6.036;2022-12-11T06:44:41;100972.19;;;2.36;89.13
49827;BME280;35715;51.570;6.036;2022-12-11T06:47:06;100972.91;;;2.26;87.69
49827;BME280;35715;51.570;6.036;2022-12-11T06:49:31;100964.22;;;2.24;87.25
49827;BME280;35715;51.570;6.036;2022-12-11T06:51:57;100967.81;;;2.26;86.68
49827;BME280;35715;51.570;6.036;2022-12-11T06:54:25;100967.97;;;2.28;86.69
49827;BME280;35715;51.570;6.036;2022-12-11T06:57:09;100962.28;;;2.30;86.84
49827;BME280;35715;51.570;6.036;2022-12-11T06:59:34;100968.00;;;2.37;87.23
49827;BME280;35715;51.570;6.036;2022-12-11T07:01:59;100967.44;;;2.39;87.12
49827;BME280;35715;51.570;6.036;2022-12-11T07:04:24;100969.53;;;2.43;87.69
49827;BME280;35715;51.570;6.036;2022-12-11T07:06:53;100971.91;;;2.42;87.52
49827;BME280;35715;51.570;6.036;2022-12-11T07:09:19;100972.38;;;2.46;87.80
49827;BME280;35715;51.570;6.036;2022-12-11T07:11:44;100976.72;;;2.47;87.77
49827;BME280;35715;51.570;6.036;2022-12-11T07:14:09;100982.72;;;2.48;87.71
49827;BME280;35715;51.570;6.036;2022-12-11T07:16:51;100986.34;;;2.50;87.58
49827;BME280;35715;51.570;6.036;2022-12-11T07:19:16;100979.44;;;2.49;87.03
49827;BME280;35715;51.570;6.036;2022-12-11T07:21:42;100973.00;;;2.44;86.91
49827;BME280;35715;51.570;6.036;2022-12-11T07:24:07;100979.13;;;2.46;86.91
49827;BME280;35715;51.570;6.036;2022-12-11T07:26:33;100985.56;;;2.42;86.57
49827;BME280;35715;51.570;6.036;2022-12-11T07:28:59;100982.09;;;2.42;86.43
49827;BME280;35715;51.570;6.036;2022-12-11T07:31:25;100989.59;;;2.40;86.42
49827;BME280;35715;51.570;6.036;2022-12-11T07:33:58;100988.84;;;2.41;86.22
49827;BME280;35715;51.570;6.036;2022-12-11T07:36:25;100992.59;;;2.45;86.88
49827;BME280;35715;51.570;6.036;2022-12-11T07:38:51;100993.38;;;2.44;86.70
49827;BME280;35715;51.570;6.036;2022-12-11T07:41:17;100993.78;;;2.40;86.16
49827;BME280;35715;51.570;6.036;2022-12-11T07:43:42;100997.16;;;2.31;85.04
49827;BME280;35715;51.570;6.036;2022-12-11T07:48:38;100995.09;;;2.36;85.07
49827;BME280;35715;51.570;6.036;2022-12-11T07:51:23;101001.28;;;2.38;85.08
49827;BME280;35715;51.570;6.036;2022-12-11T07:53:51;101004.13;;;2.41;85.40
49827;BME280;35715;51.570;6.036;2022-12-11T07:56:20;101006.19;;;2.37;84.98
49827;BME280;35715;51.570;6.036;2022-12-11T07:58:45;101008.00;;;2.38;85.26
49827;BME280;35715;51.570;6.036;2022-12-11T08:01:11;101010.38;;;2.36;84.62
49827;BME280;35715;51.570;6.036;2022-12-11T08:03:39;101009.06;;;2.40;84.94
49827;BME280;35715;51.570;6.036;2022-12-11T08:06:14;101008.63;;;2.44;84.84
49827;BME280;35715;51.570;6.036;2022-12-11T08:08:39;101004.28;;;2.43;84.55
49827;BME280;35715;51.570;6.036;2022-12-11T08:11:06;101006.41;;;2.47;85.02
49827;BME280;35715;51.570;6.036;2022-12-11T08:13:32;101002.03;;;2.46;84.52
49827;BME280;35715;51.570;6.036;2022-12-11T08:15:58;101000.06;;;2.43;84.52
49827;BME280;35715;51.570;6.036;2022-12-11T08:18:26;101002.94;;;2.46;84.67
49827;BME280;35715;51.570;6.036;2022-12-11T08:20:52;100994.41;;;2.46;84.38
49827;BME280;35715;51.570;6.036;2022-12-11T08:23:17;100990.34;;;2.48;84.20
49827;BME280;35715;51.570;6.036;2022-12-11T08:25:49;100989.31;;;2.46;83.69
49827;BME280;35715;51.570;6.036;2022-12-11T08:28:14;100982.56;;;2.46;83.83
49827;BME280;35715;51.570;6.036;2022-12-11T08:30:40;100986.88;;;2.39;82.98
49827;BME280;35715;51.570;6.036;2022-12-11T08:33:05;100988.28;;;2.44;84.02
49827;BME280;35715;51.570;6.036;2022-12-11T08:35:37;100988.28;;;2.44;83.66
49827;BME280;35715;51.570;6.036;2022-12-11T08:38:03;100999.22;;;2.52;83.84
49827;BME280;35715;51.570;6.036;2022-12-11T08:40:28;100992.63;;;2.54;83.51
49827;BME280;35715;51.570;6.036;2022-12-11T08:42:53;100994.44;;;2.55;83.51
49827;BME280;35715;51.570;6.036;2022-12-11T08:45:19;100994.88;;;2.51;82.72
49827;BME280;35715;51.570;6.036;2022-12-11T08:47:45;100994.72;;;2.49;82.99
49827;BME280;35715;51.570;6.036;2022-12-11T08:50:10;100997.69;;;2.45;82.44
49827;BME280;35715;51.570;6.036;2022-12-11T08:52:35;100988.13;;;2.42;82.82
49827;BME280;35715;51.570;6.036;2022-12-11T08:55:02;100989.63;;;2.49;83.23
49827;BME280;35715;51.570;6.036;2022-12-11T08:57:27;100991.59;;;2.52;83.12
49827;BME280;35715;51.570;6.036;2022-12-11T08:59:52;100978.84;;;2.52;83.31
49827;BME280;35715;51.570;6.036;2022-12-11T09:02:18;100986.66;;;2.53;83.60
49827;BME280;35715;51.570;6.036;2022-12-11T09:04:43;100977.78;;;2.49;82.96
49827;BME280;35715;51.570;6.036;2022-12-11T09:07:16;100984.38;;;2.47;82.84
49827;BME280;35715;51.570;6.036;2022-12-11T09:09:41;100992.75;;;2.46;82.57
49827;BME280;35715;51.570;6.036;2022-12-11T09:12:06;100984.22;;;2.46;82.50
49827;BME280;35715;51.570;6.036;2022-12-11T09:14:31;100983.91;;;2.43;82.52
49827;BME280;35715;51.570;6.036;2022-12-11T09:17:06;100973.41;;;2.40;82.11
49827;BME280;35715;51.570;6.036;2022-12-11T09:19:32;100975.81;;;2.38;81.84
49827;BME280;35715;51.570;6.036;2022-12-11T09:21:58;100981.00;;;2.31;81.38
49827;BME280;35715;51.570;6.036;2022-12-11T09:24:23;100971.88;;;2.33;81.48
49827;BME280;35715;51.570;6.036;2022-12-11T09:26:48;100968.31;;;2.40;81.88
49827;BME280;35715;51.570;6.036;2022-12-11T09:29:13;100972.38;;;2.46;81.98
49827;BME280;35715;51.570;6.036;2022-12-11T09:31:39;100968.47;;;2.41;81.26
49827;BME280;35715;51.570;6.036;2022-12-11T09:34:05;100969.63;;;2.36;81.04
49827;BME280;35715;51.570;6.036;2022-12-11T09:39:17;100983.94;;;2.52;81.73
49827;BME280;35715;51.570;6.036;2022-12-11T09:46:41;100982.25;;;2.43;80.62
49827;BME280;35715;51.570;6.036;2022-12-11T09:49:19;100981.97;;;2.49;81.44
49827;BME280;35715;51.570;6.036;2022-12-11T09:51:48;100985.56;;;2.51;81.31
49827;BME280;35715;51.570;6.036;2022-12-11T09:54:14;100975.69;;;2.54;80.97
49827;BME280;35715;51.570;6.036;2022-12-11T10:02:54;100968.53;;;2.59;80.80
49827;BME280;35715;51.570;6.036;2022-12-11T10:07:39;100966.16;;;2.69;80.22
49827;BME280;35715;51.570;6.036;2022-12-11T10:17:49;100978.72;;;2.59;79.18
49827;BME280;35715;51.570;6.036;2022-12-11T10:20:27;100966.00;;;2.67;79.87
49827;BME280;35715;51.570;6.036;2022-12-11T10:22:55;100967.09;;;2.70;79.61
49827;BME280;35715;51.570;6.036;2022-12-11T10:27:48;100970.53;;;2.70;79.54
49827;BME280;35715;51.570;6.036;2022-12-11T10:30:16;100964.84;;;2.73;79.79
49827;BME280;35715;51.570;6.036;2022-12-11T10:37:51;100965.88;;;2.75;79.94
49827;BME280;35715;51.570;6.036;2022-12-11T10:40:19;100963.63;;;2.69;79.15
49827;BME280;35715;51.570;6.036;2022-12-11T10:42:51;100955.25;;;2.70;79.34
49827;BME280;35715;51.570;6.036;2022-12-11T10:45:17;100957.94;;;2.72;79.25
49827;BME280;35715;51.570;6.036;2022-12-11T10:47:42;100959.06;;;2.49;78.44
49827;BME280;35715;51.570;6.036;2022-12-11T10:50:20;100954.81;;;2.32;78.41
49827;BME280;35715;51.570;6.036;2022-12-11T10:52:46;100955.91;;;2.43;79.05
49827;BME280;35715;51.570;6.036;2022-12-11T10:55:23;100947.84;;;2.56;79.64
49827;BME280;35715;51.570;6.036;2022-12-11T10:57:53;100947.09;;;2.57;78.75
49827;BME280;35715;51.570;6.036;2022-12-11T11:03:00;100947.38;;;2.42;78.07
49827;BME280;35715;51.570;6.036;2022-12-11T11:05:43;100947.22;;;2.49;79.66
49827;BME280;35715;51.570;6.036;2022-12-11T11:10:37;100946.34;;;2.49;78.50
49827;BME280;35715;51.570;6.036;2022-12-11T11:13:02;100945.28;;;2.56;79.10
49827;BME280;35715;51.570;6.036;2022-12-11T11:21:30;100947.41;;;2.60;78.90
49827;BME280;35715;51.570;6.036;2022-12-11T11:24:02;100935.25;;;2.48;77.32
49827;BME280;35715;51.570;6.036;2022-12-11T11:26:30;100935.53;;;2.43;77.84
49827;BME280;35715;51.570;6.036;2022-12-11T11:28:56;100926.56;;;2.55;78.30
49827;BME280;35715;51.570;6.036;2022-12-11T11:31:31;100929.31;;;2.65;79.05
49827;BME280;35715;51.570;6.036;2022-12-11T11:34:02;100919.25;;;2.67;78.60
49827;BME280;35715;51.570;6.036;2022-12-11T11:36:33;100926.41;;;2.54;77.44
49827;BME280;35715;51.570;6.036;2022-12-11T11:44:12;100922.53;;;2.57;78.30
49827;BME280;35715;51.570;6.036;2022-12-11T11:46:48;100921.63;;;2.57;77.66
49827;BME280;35715;51.570;6.036;2022-12-11T11:51:48;100919.41;;;2.69;78.07
49827;BME280;35715;51.570;6.036;2022-12-11T11:54:21;100907.88;;;2.72;77.70
49827;BME280;35715;51.570;6.036;2022-12-11T11:56:51;100905.16;;;2.53;77.40
49827;BME280;35715;51.570;6.036;2022-12-11T12:01:43;100901.28;;;2.65;78.05
49827;BME280;35715;51.570;6.036;2022-12-11T12:04:08;100903.41;;;2.70;78.28
49827;BME280;35715;51.570;6.036;2022-12-11T12:06:42;100905.03;;;2.78;78.65
49827;BME280;35715;51.570;6.036;2022-12-11T12:09:22;100899.06;;;2.77;78.11
49827;BME280;35715;51.570;6.036;2022-12-11T12:14:20;100901.91;;;2.89;79.12
49827;BME280;35715;51.570;6.036;2022-12-11T12:17:10;100905.81;;;2.94;79.16
49827;BME280;35715;51.570;6.036;2022-12-11T12:24:44;100900.72;;;2.86;78.15
49827;BME280;35715;51.570;6.036;2022-12-11T12:30:10;100892.75;;;2.82;79.04
49827;BME280;35715;51.570;6.036;2022-12-11T12:45:48;100874.78;;;2.90;77.91
49827;BME280;35715;51.570;6.036;2022-12-11T12:48:16;100886.03;;;3.00;78.82
49827;BME280;35715;51.570;6.036;2022-12-11T12:50:45;100888.41;;;2.90;77.89
49827;BME280;35715;51.570;6.036;2022-12-11T12:53:13;100886.16;;;2.93;77.69
49827;BME280;35715;51.570;6.036;2022-12-11T12:58:26;100883.91;;;2.96;77.58
49827;BME280;35715;51.570;6.036;2022-12-11T13:00:52;100889.94;;;2.97;77.70
49827;BME280;35715;51.570;6.036;2022-12-11T13:03:24;100882.28;;;2.79;76.39
49827;BME280;35715;51.570;6.036;2022-12-11T13:06:02;100889.16;;;2.72;77.39
49827;BME280;35715;51.570;6.036;2022-12-11T13:11:00;100893.34;;;2.80;77.82
49827;BME280;35715;51.570;6.036;2022-12-11T13:13:45;100892.00;;;2.75;77.73
49827;BME280;35715;51.570;6.036;2022-12-11T13:18:41;100886.88;;;2.66;77.08
49827;BME280;35715;51.570;6.036;2022-12-11T13:23:51;100888.53;;;2.65;77.91
49827;BME280;35715;51.570;6.036;2022-12-11T13:26:27;100886.75;;;2.73;78.43
49827;BME280;35715;51.570;6.036;2022-12-11T13:28:53;100893.34;;;2.80;78.09
49827;BME280;35715;51.570;6.036;2022-12-11T13:33:53;100891.28;;;2.76;77.39
49827;BME280;35715;51.570;6.036;2022-12-11T13:38:51;100895.75;;;2.70;77.64
49827;BME280;35715;51.570;6.036;2022-12-11T13:41:17;100896.66;;;2.79;78.37
49827;BME280;35715;51.570;6.036;2022-12-11T13:43:44;100902.38;;;2.85;78.17
49827;BME280;35715;51.570;6.036;2022-12-11T13:46:47;100905.53;;;2.91;77.79
49827;BME280;35715;51.570;6.036;2022-12-11T13:49:21;100900.72;;;2.94;77.58
49827;BME280;35715;51.570;6.036;2022-12-11T13:51:55;100900.41;;;2.91;77.59
49827;BME280;35715;51.570;6.036;2022-12-11T13:54:21;100893.38;;;2.89;77.61
49827;BME280;35715;51.570;6.036;2022-12-11T14:08:16;100888.84;;;2.86;78.07
49827;BME280;35715;51.570;6.036;2022-12-11T14:10:44;100901.91;;;2.80;77.34
49827;BME280;35715;51.570;6.036;2022-12-11T14:13:54;100895.91;;;2.80;77.86
49827;BME280;35715;51.570;6.036;2022-12-11T14:15:56;100898.00;;;2.75;77.79
49827;BME280;35715;51.570;6.036;2022-12-11T14:18:22;100905.63;;;2.75;77.94
49827;BME280;35715;51.570;6.036;2022-12-11T14:20:55;100909.09;;;2.76;77.95
49827;BME280;35715;51.570;6.036;2022-12-11T14:23:25;100900.69;;;2.77;78.21
49827;BME280;35715;51.570;6.036;2022-12-11T14:25:56;100910.28;;;2.71;77.73
49827;BME280;35715;51.570;6.036;2022-12-11T14:49:21;100911.06;;;2.36;78.36
49827;BME280;35715;51.570;6.036;2022-12-11T14:51:49;100910.28;;;2.28;78.68
49827;BME280;35715;51.570;6.036;2022-12-11T14:57:22;100914.66;;;2.29;78.84
49827;BME280;35715;51.570;6.036;2022-12-11T15:00:00;100914.06;;;2.32;78.75
49827;BME280;35715;51.570;6.036;2022-12-11T15:07:36;100915.44;;;2.04;79.25
49827;BME280;35715;51.570;6.036;2022-12-11T15:10:02;100926.00;;;2.16;79.64
49827;BME280;35715;51.570;6.036;2022-12-11T15:12:28;100921.50;;;2.22;79.33
49827;BME280;35715;51.570;6.036;2022-12-11T15:14:54;100927.81;;;2.25;79.07
49827;BME280;35715;51.570;6.036;2022-12-11T15:19:47;100927.31;;;2.12;79.21
49827;BME280;35715;51.570;6.036;2022-12-11T15:22:15;100928.22;;;2.12;79.23
49827;BME280;35715;51.570;6.036;2022-12-11T15:24:41;100931.06;;;2.16;79.42
49827;BME280;35715;51.570;6.036;2022-12-11T15:27:29;100928.38;;;2.14;79.45
49827;BME280;35715;51.570;6.036;2022-12-11T15:29:56;100933.56;;;2.07;78.78
49827;BME280;35715;51.570;6.036;2022-12-11T15:32:22;100933.47;;;2.14;79.38
49827;BME280;35715;51.570;6.036;2022-12-11T15:40:04;100931.28;;;2.26;79.15
49827;BME280;35715;51.570;6.036;2022-12-11T15:42:30;100929.19;;;2.30;79.09
49827;BME280;35715;51.570;6.036;2022-12-11T15:44:57;100934.28;;;2.30;78.87
49827;BME280;35715;51.570;6.036;2022-12-11T15:47:24;100943.44;;;2.37;79.20
49827;BME280;35715;51.570;6.036;2022-12-11T15:49:52;100935.22;;;2.40;79.11
49827;BME280;35715;51.570;6.036;2022-12-11T15:52:18;100932.94;;;2.34;78.25
49827;BME280;35715;51.570;6.036;2022-12-11T15:54:43;100930.69;;;2.37;78.88
49827;BME280;35715;51.570;6.036;2022-12-11T15:57:13;100921.56;;;2.30;78.43
49827;BME280;35715;51.570;6.036;2022-12-11T15:59:40;100927.88;;;2.43;78.86
49827;BME280;35715;51.570;6.036;2022-12-11T16:02:10;100930.41;;;2.34;78.13
49827;BME280;35715;51.570;6.036;2022-12-11T16:04:52;100931.75;;;2.30;78.40
49827;BME280;35715;51.570;6.036;2022-12-11T16:12:57;100920.88;;;2.49;79.08
49827;BME280;35715;51.570;6.036;2022-12-11T16:15:25;100927.31;;;2.54;78.95
49827;BME280;35715;51.570;6.036;2022-12-11T16:18:01;100926.25;;;2.52;78.65
49827;BME280;35715;51.570;6.036;2022-12-11T16:20:27;100933.31;;;2.55;78.89